Time;durP1;ratioP1;P1;durP2;ratioP2;P2;SDS_P1;SDS_P2;PMS_P1;PMS_P2;Temp;Humidity;BMP_temperature;BMP_pressure;BME280_temperature;BME280_humidity;BME280_pressure;Samples;Min_cycle;Max_cycle;Signal;HPM_P1;HPM_P2
2021/10/11 00:02:10;;;;;;;4.38;0.63;;;;;;;9.96;100.00;101350.72;6338883;22;20026;-49
2021/10/11 00:05:12;;;;;;;0.50;0.50;;;;;;;9.91;100.00;101343.66;6338635;22;20394;-49
2021/10/11 00:08:15;;;;;;;4.47;0.60;;;;;;;9.91;100.00;101343.66;6338923;22;20025;-50
2021/10/11 00:11:18;;;;;;;1.60;0.30;;;;;;;9.93;100.00;101330.09;6338613;22;20026;-49
2021/10/11 00:14:21;;;;;;;0.80;0.45;;;;;;;9.93;100.00;101324.53;6338791;22;20022;-50
2021/10/11 00:17:23;;;;;;;1.75;0.82;;;;;;;9.93;100.00;101330.09;6338464;22;20077;-50
2021/10/11 00:20:26;;;;;;;1.88;1.00;;;;;;;9.94;100.00;101320.53;6338835;22;20040;-49
2021/10/11 00:23:29;;;;;;;1.23;0.63;;;;;;;9.90;100.00;101328.19;6338368;22;20139;-50
2021/10/11 00:26:32;;;;;;;2.05;1.02;;;;;;;9.90;100.00;101337.31;6338704;22;20042;-49
2021/10/11 00:29:35;;;;;;;0.70;0.70;;;;;;;9.92;100.00;101340.44;6338494;22;20025;-49
2021/10/11 00:32:38;;;;;;;4.30;0.40;;;;;;;9.91;100.00;101338.91;6338255;22;20025;-50
2021/10/11 00:35:41;;;;;;;1.95;0.50;;;;;;;9.90;100.00;101336.53;6335911;22;20029;-50
2021/10/11 00:38:44;;;;;;;0.20;0.17;;;;;;;9.88;100.00;101347.31;6316856;22;20139;-50
2021/10/11 00:41:47;;;;;;;0.70;0.70;;;;;;;9.79;100.00;101347.13;6335929;22;20077;-50
2021/10/11 00:44:50;;;;;;;0.40;0.40;;;;;;;9.69;100.00;101348.97;6336046;22;20072;-49
2021/10/11 00:47:52;;;;;;;0.40;0.40;;;;;;;9.58;100.00;101354.00;6336010;22;20069;-50
2021/10/11 00:50:57;;;;;;;1.20;0.80;;;;;;;9.49;100.00;101358.56;6335595;22;20469;-49
2021/10/11 00:54:01;;;;;;;0.40;0.40;;;;;;;9.55;100.00;101359.63;6335944;22;20091;-50
2021/10/11 00:57:04;;;;;;;3.40;0.80;;;;;;;9.65;100.00;101353.03;6336217;22;20098;-50
2021/10/11 01:00:07;;;;;;;5.65;1.15;;;;;;;9.65;100.00;101350.25;6335646;22;20037;-50
2021/10/11 01:03:10;;;;;;;0.60;0.40;;;;;;;9.69;100.00;101353.75;6335741;22;20021;-50
2021/10/11 01:06:13;;;;;;;0.65;0.30;;;;;;;9.71;100.00;101340.19;6337369;22;20025;-50
2021/10/11 01:09:16;;;;;;;1.50;0.38;;;;;;;9.68;100.00;101346.63;6338061;22;20106;-50
2021/10/11 01:12:18;;;;;;;0.50;0.50;;;;;;;9.68;100.00;101338.28;6337820;22;20029;-50
2021/10/11 01:15:21;;;;;;;1.55;0.63;;;;;;;9.68;100.00;101329.94;6337709;22;20500;-50
2021/10/11 01:18:24;;;;;;;0.20;0.20;;;;;;;9.65;100.00;101344.69;6337883;22;20056;-50
2021/10/11 01:21:27;;;;;;;0.60;0.40;;;;;;;9.72;100.00;101336.94;6337625;22;20029;-50
2021/10/11 01:24:30;;;;;;;0.73;0.40;;;;;;;9.80;100.00;101332.00;6338103;22;20025;-50
2021/10/11 01:27:33;;;;;;;1.02;0.57;;;;;;;9.80;100.00;101337.59;6338138;22;20047;-50
2021/10/11 01:30:35;;;;;;;0.20;0.20;;;;;;;9.84;100.00;101335.50;6338974;22;20065;-50
2021/10/11 01:33:39;;;;;;;0.40;0.30;;;;;;;9.79;100.00;101336.00;6338846;22;20338;-50
2021/10/11 01:36:42;;;;;;;0.32;0.32;;;;;;;9.81;100.00;101344.72;6337822;22;20025;-50
2021/10/11 01:39:45;;;;;;;0.82;0.40;;;;;;;9.61;100.00;101352.34;6337371;22;20029;-50
2021/10/11 01:42:48;;;;;;;0.68;0.68;;;;;;;9.39;100.00;101340.91;6337734;22;20041;-50
2021/10/11 01:45:51;;;;;;;0.38;0.30;;;;;;;9.33;100.00;101325.19;6337670;22;20061;-50
2021/10/11 01:48:55;;;;;;;0.82;0.80;;;;;;;9.20;100.00;101338.19;6337694;22;20025;-50
2021/10/11 01:51:59;;;;;;;0.28;0.25;;;;;;;9.24;100.00;101327.75;6337407;22;20030;-50
2021/10/11 01:55:04;;;;;;;0.28;0.20;;;;;;;9.26;100.00;101325.34;6337142;22;20041;-50
2021/10/11 01:58:07;;;;;;;8.13;0.68;;;;;;;9.31;100.00;101335.94;6337074;22;20041;-50
2021/10/11 02:01:10;;;;;;;1.95;0.40;;;;;;;9.45;100.00;101355.09;6337419;22;20454;-50
2021/10/11 02:04:13;;;;;;;0.28;0.28;;;;;;;9.48;100.00;101343.91;6337178;22;20022;-50
2021/10/11 02:07:16;;;;;;;4.85;0.73;;;;;;;9.51;100.00;101343.03;6337429;22;20041;-50
2021/10/11 02:10:19;;;;;;;5.57;1.40;;;;;;;9.55;100.00;101346.50;6337271;22;20025;-50
2021/10/11 02:13:22;;;;;;;1.58;0.70;;;;;;;9.55;100.00;101349.28;6337477;22;20068;-50
2021/10/11 02:16:25;;;;;;;0.10;0.10;;;;;;;9.59;100.00;101338.88;6336465;22;20088;-50
2021/10/11 02:19:28;;;;;;;0.43;0.43;;;;;;;9.69;100.00;101337.84;6337187;22;20091;-50
2021/10/11 02:22:31;;;;;;;1.02;0.47;;;;;;;9.75;100.00;101330.53;6336718;22;20141;-50
2021/10/11 02:25:34;;;;;;;1.17;0.28;;;;;;;9.77;100.00;101327.31;6337247;22;20064;-50
2021/10/11 02:28:37;;;;;;;0.20;0.20;;;;;;;9.79;100.00;101308.97;6336617;22;20026;-50
2021/10/11 02:31:39;;;;;;;0.10;0.10;;;;;;;9.87;100.00;101318.69;6337284;22;20136;-50
2021/10/11 02:34:42;;;;;;;0.28;0.28;;;;;;;9.90;100.00;101323.41;6337040;22;20395;-50
2021/10/11 02:37:45;;;;;;;0.20;0.20;;;;;;;9.89;100.00;101319.06;6337518;22;20072;-50
2021/10/11 02:40:48;;;;;;;0.40;0.32;;;;;;;9.84;100.00;101311.25;6339133;22;20037;-50
2021/10/11 02:43:51;;;;;;;0.10;0.10;;;;;;;9.78;100.00;101301.06;6339510;22;20026;-50
2021/10/11 02:46:53;;;;;;;4.20;0.40;;;;;;;9.78;100.00;101295.50;6339143;22;20072;-50
2021/10/11 02:49:56;;;;;;;2.88;1.30;;;;;;;9.82;100.00;101296.97;6339097;22;20021;-50
2021/10/11 02:52:59;;;;;;;1.98;0.47;;;;;;;9.83;100.00;101298.53;6339000;22;20026;-51
2021/10/11 02:56:02;;;;;;;0.28;0.28;;;;;;;9.86;100.00;101308.81;6339270;22;20343;-50
2021/10/11 02:59:04;;;;;;;10.63;0.43;;;;;;;9.86;100.00;101302.44;6338304;22;20068;-50
2021/10/11 03:02:07;;;;;;;0.10;0.10;;;;;;;9.96;100.00;101295.84;6339537;22;20022;-50
2021/10/11 03:05:10;;;;;;;4.68;1.38;;;;;;;10.10;100.00;101284.34;6339217;22;20029;-50
2021/10/11 03:08:13;;;;;;;0.60;0.15;;;;;;;10.20;100.00;101283.28;6339322;22;20389;-50
2021/10/11 03:11:16;;;;;;;0.10;0.10;;;;;;;10.32;100.00;101285.38;6339133;22;20025;-50
2021/10/11 03:14:19;;;;;;;2.25;0.60;;;;;;;10.36;100.00;101288.84;6320148;22;20021;-50
2021/10/11 03:17:22;;;;;;;0.70;0.55;;;;;;;10.38;100.00;101283.59;6338853;22;20037;-50
2021/10/11 03:20:25;;;;;;;0.40;0.40;;;;;;;10.39;100.00;101285.19;6339398;22;20370;-50
2021/10/11 03:23:27;;;;;;;2.35;0.65;;;;;;;10.42;100.00;101287.06;6338767;22;20116;-50
2021/10/11 03:26:30;;;;;;;0.20;0.20;;;;;;;10.36;100.00;101294.41;6339163;22;20062;-50
2021/10/11 03:29:33;;;;;;;5.95;1.08;;;;;;;10.36;100.00;101296.41;6338959;22;20021;-50
2021/10/11 03:32:36;;;;;;;3.40;0.30;;;;;;;10.31;100.00;101294.94;6338796;22;20022;-50
2021/10/11 03:35:39;;;;;;;0.10;0.10;;;;;;;10.27;100.00;101285.09;6338894;22;20037;-50
2021/10/11 03:38:42;;;;;;;0.32;0.30;;;;;;;10.16;100.00;101265.91;6339093;22;20071;-50
2021/10/11 03:41:45;;;;;;;0.30;0.30;;;;;;;10.15;100.00;101274.72;6338869;22;20025;-51
2021/10/11 03:44:47;;;;;;;0.52;0.52;;;;;;;10.14;100.00;101303.75;6338968;22;20022;-50
2021/10/11 03:47:50;;;;;;;0.40;0.22;;;;;;;10.05;100.00;101290.44;6338862;22;20021;-50
2021/10/11 03:50:53;;;;;;;2.10;0.90;;;;;;;10.01;100.00;101292.53;6338933;22;20516;-50
2021/10/11 03:53:56;;;;;;;1.00;0.55;;;;;;;9.96;100.00;101276.38;6338609;22;20068;-50
2021/10/11 03:56:59;;;;;;;0.47;0.35;;;;;;;10.01;100.00;101286.94;6338930;22;20473;-50
2021/10/11 04:00:03;;;;;;;0.73;0.38;;;;;;;10.06;100.00;101300.34;6338958;22;20351;-50
2021/10/11 04:03:08;;;;;;;6.95;0.85;;;;;;;9.81;100.00;101311.34;6338956;22;20026;-50
2021/10/11 04:06:11;;;;;;;0.10;0.10;;;;;;;9.98;100.00;101296.19;6338694;22;20046;-51
2021/10/11 04:09:15;;;;;;;2.47;0.98;;;;;;;9.93;100.00;101296.72;6338831;22;20048;-50
2021/10/11 04:12:22;;;;;;;0.52;0.32;;;;;;;9.80;100.00;101281.94;6338820;22;20096;-50
2021/10/11 04:15:25;;;;;;;0.10;0.10;;;;;;;9.67;100.00;101275.50;6338486;22;20038;-50
2021/10/11 04:18:28;;;;;;;1.30;0.15;;;;;;;9.63;100.00;101277.59;6338811;22;20022;-50
2021/10/11 04:21:30;;;;;;;2.60;0.30;;;;;;;9.62;100.00;101281.56;6338621;22;20470;-50
2021/10/11 04:24:33;;;;;;;0.20;0.20;;;;;;;9.61;100.00;101285.59;6338347;22;20102;-50
2021/10/11 04:27:36;;;;;;;5.72;0.63;;;;;;;9.57;100.00;101290.47;6338396;22;20033;-50
2021/10/11 04:30:41;;;;;;;4.25;1.25;;;;;;;9.56;100.00;101288.88;6338401;22;20026;-50
2021/10/11 04:33:43;;;;;;;0.30;0.30;;;;;;;9.53;100.00;101289.78;6338108;22;20094;-50
2021/10/11 04:36:46;;;;;;;1.50;0.15;;;;;;;9.53;100.00;101295.34;6338010;22;20075;-50
2021/10/11 04:39:49;;;;;;;3.50;0.32;;;;;;;9.55;100.00;101288.09;6338251;22;20067;-51
2021/10/11 04:42:53;;;;;;;5.93;0.82;;;;;;;9.53;100.00;101300.91;6318536;22;20071;-51
2021/10/11 04:45:55;;;;;;;0.20;0.10;;;;;;;9.55;100.00;101299.22;6337824;22;20063;-50
2021/10/11 04:48:58;;;;;;;0.25;0.25;;;;;;;9.51;100.00;101294.94;6337277;22;20030;-50
2021/10/11 04:52:01;;;;;;;0.20;0.20;;;;;;;9.54;100.00;101300.44;6338305;22;20029;-50
2021/10/11 04:55:04;;;;;;;0.25;0.25;;;;;;;9.49;100.00;101306.53;6338173;22;20026;-51
2021/10/11 04:58:07;;;;;;;0.10;0.10;;;;;;;9.51;100.00;101308.84;6338156;22;20049;-50
2021/10/11 05:01:10;;;;;;;0.95;0.28;;;;;;;9.54;100.00;101310.78;6337647;22;20458;-50
2021/10/11 05:04:13;;;;;;;0.10;0.10;;;;;;;9.46;100.00;101303.84;6338146;22;20462;-51
2021/10/11 05:07:16;;;;;;;0.30;0.30;;;;;;;9.39;100.00;101299.22;6338114;22;20336;-51
2021/10/11 05:10:19;;;;;;;0.30;0.28;;;;;;;9.32;100.00;101295.81;6338110;22;20338;-51
2021/10/11 05:13:22;;;;;;;7.93;0.50;;;;;;;9.19;100.00;101301.25;6338491;22;20018;-50
2021/10/11 05:16:26;;;;;;;0.10;0.10;;;;;;;9.14;100.00;101313.66;6337542;22;20021;-51
2021/10/11 05:19:29;;;;;;;3.45;0.43;;;;;;;9.09;100.00;101305.84;6338415;22;20336;-50
2021/10/11 05:22:32;;;;;;;0.73;0.73;;;;;;;9.03;100.00;101304.78;6337838;22;20029;-50
2021/10/11 05:25:35;;;;;;;4.68;0.30;;;;;;;9.02;100.00;101310.75;6338127;22;20025;-50
2021/10/11 05:28:38;;;;;;;0.20;0.20;;;;;;;9.00;100.00;101308.44;6337904;22;20387;-51
2021/10/11 05:31:41;;;;;;;2.60;0.63;;;;;;;8.92;100.00;101301.44;6338452;22;20045;-50
2021/10/11 05:34:45;;;;;;;3.17;0.75;;;;;;;8.90;100.00;101303.84;6338121;22;20018;-50
2021/10/11 05:37:47;;;;;;;2.90;1.50;;;;;;;8.92;100.00;101309.00;6338207;22;20140;-50
2021/10/11 05:40:50;;;;;;;13.75;3.38;;;;;;;8.90;100.00;101303.09;6337423;22;20022;-50
2021/10/11 05:43:53;;;;;;;14.02;3.78;;;;;;;8.86;100.00;101314.25;6337996;22;20033;-50
2021/10/11 05:46:56;;;;;;;1.08;0.98;;;;;;;8.77;100.00;101316.81;6337818;22;20099;-51
2021/10/11 05:49:59;;;;;;;0.77;0.77;;;;;;;8.66;100.00;101321.84;6338411;22;20080;-50
2021/10/11 05:53:01;;;;;;;21.60;2.95;;;;;;;8.64;100.00;101318.66;6339400;22;20030;-50
2021/10/11 05:56:04;;;;;;;19.63;5.50;;;;;;;8.58;100.00;101320.38;6339782;22;20327;-50
2021/10/11 05:59:07;;;;;;;16.92;5.55;;;;;;;8.59;100.00;101326.72;6339713;22;20025;-50
2021/10/11 06:02:10;;;;;;;9.75;2.88;;;;;;;8.55;100.00;101328.78;6339554;22;20036;-50
2021/10/11 06:05:12;;;;;;;2.50;1.15;;;;;;;8.55;100.00;101334.34;6339122;22;20335;-50
2021/10/11 06:08:15;;;;;;;4.90;1.40;;;;;;;8.56;100.00;101322.00;6339785;22;20415;-50
2021/10/11 06:11:19;;;;;;;3.15;0.98;;;;;;;8.59;100.00;101327.53;6339516;22;20025;-51
2021/10/11 06:14:22;;;;;;;1.33;0.65;;;;;;;8.55;100.00;101332.38;6339492;22;20067;-50
2021/10/11 06:17:25;;;;;;;1.45;0.55;;;;;;;8.53;100.00;101334.78;6339280;22;20022;-50
2021/10/11 06:20:28;;;;;;;1.42;0.80;;;;;;;8.52;100.00;101335.97;6339452;22;20049;-50
2021/10/11 06:23:31;;;;;;;0.30;0.30;;;;;;;8.55;100.00;101349.03;6338987;22;20083;-50
2021/10/11 06:26:34;;;;;;;2.00;1.05;;;;;;;8.51;100.00;101337.19;6339560;22;20204;-50
2021/10/11 06:29:37;;;;;;;1.15;0.95;;;;;;;8.50;100.00;101334.84;6339032;22;20167;-50
2021/10/11 06:32:40;;;;;;;3.90;0.90;;;;;;;8.45;100.00;101329.75;6339091;22;20111;-50
2021/10/11 06:35:43;;;;;;;0.55;0.55;;;;;;;8.44;100.00;101336.53;6338678;22;20017;-49
2021/10/11 06:38:46;;;;;;;0.40;0.40;;;;;;;8.43;100.00;101335.75;6339583;22;20446;-50
2021/10/11 06:41:49;;;;;;;0.70;0.70;;;;;;;8.46;100.00;101337.69;6339209;22;20477;-50
2021/10/11 06:44:52;;;;;;;0.40;0.40;;;;;;;8.46;100.00;101339.66;6338835;22;20057;-51
2021/10/11 06:47:55;;;;;;;9.93;0.95;;;;;;;8.50;100.00;101335.63;6339157;22;20028;-50
2021/10/11 06:50:57;;;;;;;0.63;0.63;;;;;;;8.51;100.00;101337.19;6339677;22;20030;-50
2021/10/11 06:54:00;;;;;;;0.32;0.32;;;;;;;8.53;100.00;101340.34;6339101;22;20446;-51
2021/10/11 06:57:03;;;;;;;0.75;0.75;;;;;;;8.60;100.00;101348.50;6339230;22;20026;-50
2021/10/11 07:00:06;;;;;;;1.38;0.70;;;;;;;8.70;100.00;101346.75;6338447;22;20022;-50
2021/10/11 07:03:10;;;;;;;1.90;0.65;;;;;;;8.77;100.00;101361.25;6338037;22;20050;-50
2021/10/11 07:06:17;;;;;;;0.10;0.10;;;;;;;8.89;100.00;101368.97;6336846;22;20025;-51
2021/10/11 07:09:20;;;;;;;3.30;0.30;;;;;;;9.10;100.00;101367.75;6338137;22;20488;-51
2021/10/11 07:12:23;;;;;;;0.50;0.50;;;;;;;9.24;100.00;101361.13;6337525;22;20734;-50
2021/10/11 07:15:28;;;;;;;9.43;0.40;;;;;;;9.33;100.00;101367.66;6337869;22;20029;-50
2021/10/11 07:18:35;;;;;;;0.25;0.25;;;;;;;9.45;100.00;101367.00;6338634;22;20030;-50
2021/10/11 07:21:39;;;;;;;0.63;0.50;;;;;;;9.57;100.00;101365.56;6338843;22;20062;-49
2021/10/11 07:24:42;;;;;;;0.40;0.38;;;;;;;9.64;100.00;101373.72;6338704;22;20025;-49
2021/10/11 07:27:45;;;;;;;0.17;0.17;;;;;;;9.74;100.00;101373.50;6337954;22;20354;-50
2021/10/11 07:30:49;;;;;;;14.25;0.60;;;;;;;9.85;100.00;101367.69;6338174;22;20029;-48
2021/10/11 07:33:52;;;;;;;0.38;0.32;;;;;;;10.03;100.00;101368.00;6337879;22;20120;-48
2021/10/11 07:36:54;;;;;;;0.63;0.47;;;;;;;10.16;100.00;101371.69;6338499;22;20470;-48
2021/10/11 07:39:58;;;;;;;6.75;0.43;;;;;;;10.29;100.00;101380.91;6339400;22;20080;-48
2021/10/11 07:43:01;;;;;;;0.13;0.13;;;;;;;10.44;100.00;101375.75;6338959;22;20072;-48
2021/10/11 07:46:05;;;;;;;0.15;0.15;;;;;;;10.60;100.00;101373.72;6338056;22;20022;-48
2021/10/11 07:49:12;;;;;;;0.60;0.43;;;;;;;10.70;100.00;101391.38;6338733;22;20067;-48
2021/10/11 07:52:15;;;;;;;1.05;0.80;;;;;;;10.77;100.00;101382.03;6338854;22;20067;-48
2021/10/11 07:55:18;;;;;;;0.40;0.13;;;;;;;10.88;100.00;101388.09;6338823;22;20061;-48
2021/10/11 07:58:21;;;;;;;23.38;0.77;;;;;;;11.00;100.00;101387.38;6338458;22;20033;-48
2021/10/11 08:01:24;;;;;;;1.92;0.52;;;;;;;11.11;100.00;101394.19;6338672;22;20477;-48
2021/10/11 08:04:27;;;;;;;2.42;0.40;;;;;;;11.27;100.00;101398.94;6338187;22;20501;-48
2021/10/11 08:07:31;;;;;;;3.90;0.65;;;;;;;11.39;100.00;101398.19;6338369;22;20438;-48
2021/10/11 08:10:34;;;;;;;2.38;0.57;;;;;;;11.52;100.00;101401.75;6338237;22;20022;-48
2021/10/11 08:13:36;;;;;;;3.38;0.98;;;;;;;11.54;100.00;101406.91;6338400;22;20331;-48
2021/10/11 08:16:40;;;;;;;0.73;0.45;;;;;;;11.65;100.00;101413.72;6337899;22;20405;-48
2021/10/11 08:19:44;;;;;;;13.65;1.92;;;;;;;11.76;100.00;101405.81;6338443;22;20469;-48
2021/10/11 08:22:47;;;;;;;0.73;0.65;;;;;;;11.95;100.00;101415.22;6338012;22;20025;-48
2021/10/11 08:25:51;;;;;;;0.70;0.30;;;;;;;12.09;100.00;101415.53;6338847;22;20030;-48
2021/10/11 08:28:54;;;;;;;0.30;0.28;;;;;;;12.23;100.00;101413.53;6338076;22;20072;-48
2021/10/11 08:31:57;;;;;;;2.20;0.85;;;;;;;12.37;100.00;101413.81;6338468;22;20079;-48
2021/10/11 08:35:00;;;;;;;0.82;0.60;;;;;;;12.52;100.00;101412.13;6338238;22;20026;-48
2021/10/11 08:38:02;;;;;;;1.60;0.63;;;;;;;12.62;100.00;101410.19;6338482;22;20021;-48
2021/10/11 08:41:10;;;;;;;1.20;0.50;;;;;;;12.74;100.00;101403.78;6338090;22;20026;-48
2021/10/11 08:44:13;;;;;;;0.95;0.75;;;;;;;12.87;100.00;101401.72;6338458;22;20065;-48
2021/10/11 08:47:16;;;;;;;7.43;0.88;;;;;;;12.94;100.00;101405.03;6337615;22;20025;-48
2021/10/11 08:50:20;;;;;;;6.07;1.02;;;;;;;13.14;100.00;101404.75;6338410;22;20327;-48
2021/10/11 08:53:23;;;;;;;13.70;1.02;;;;;;;13.27;100.00;101402.66;6337772;22;20072;-48
2021/10/11 08:56:26;;;;;;;0.40;0.20;;;;;;;13.41;100.00;101407.72;6338175;22;20022;-48
2021/10/11 08:59:29;;;;;;;2.50;0.95;;;;;;;13.51;100.00;101406.53;6337806;22;20073;-48
2021/10/11 09:02:32;;;;;;;2.78;1.42;;;;;;;13.55;100.00;101401.59;6338247;22;20323;-48
2021/10/11 09:05:40;;;;;;;1.55;0.85;;;;;;;13.61;100.00;101405.34;6337478;22;20075;-48
2021/10/11 09:08:44;;;;;;;3.47;1.08;;;;;;;13.66;100.00;101407.53;6337874;22;20067;-48
2021/10/11 09:11:46;;;;;;;0.68;0.40;;;;;;;13.61;100.00;101396.97;6337904;22;20025;-48
2021/10/11 09:15:05;;;;;;;4.18;1.38;;;;;;;13.60;100.00;101403.78;6337780;22;20022;-48
2021/10/11 09:18:09;;;;;;;2.13;0.73;;;;;;;13.59;100.00;101399.44;6337737;22;20022;-48
2021/10/11 09:21:12;;;;;;;7.32;0.77;;;;;;;13.59;100.00;101399.44;6337901;22;20025;-48
2021/10/11 09:24:21;;;;;;;1.73;0.28;;;;;;;13.55;100.00;101396.00;6338019;22;20025;-48
2021/10/11 09:27:23;;;;;;;8.02;0.50;;;;;;;13.46;100.00;101404.34;6339538;22;20025;-48
2021/10/11 09:30:30;;;;;;;0.95;0.85;;;;;;;13.46;100.00;101409.94;6340285;22;20488;-48
2021/10/11 09:33:33;;;;;;;0.20;0.20;;;;;;;13.43;100.00;101416.44;6340030;22;20064;-48
2021/10/11 09:36:37;;;;;;;0.65;0.50;;;;;;;13.41;100.00;101407.72;6339556;22;20026;-48
2021/10/11 09:39:42;;;;;;;3.15;0.30;;;;;;;13.47;100.00;101400.28;6339830;22;20025;-48
2021/10/11 09:42:46;;;;;;;4.88;0.38;;;;;;;13.57;100.00;101404.72;6339303;22;20072;-48
2021/10/11 09:45:51;;;;;;;0.32;0.22;;;;;;;13.72;100.00;101401.34;6339501;22;20481;-48
2021/10/11 09:48:58;;;;;;;5.47;0.75;;;;;;;13.86;100.00;101401.56;6340149;22;20370;-48
2021/10/11 09:52:01;;;;;;;1.75;0.70;;;;;;;13.94;100.00;101402.84;6339829;22;20351;-48
2021/10/11 09:55:06;;;;;;;7.10;0.52;;;;;;;14.24;100.00;101412.44;6339723;22;20075;-48
2021/10/11 09:58:12;;;;;;;3.15;0.88;;;;;;;14.46;100.00;101407.53;6339675;22;20029;-48
2021/10/11 10:01:16;;;;;;;5.50;0.35;;;;;;;14.67;100.00;101412.25;6321354;22;20084;-48
2021/10/11 10:04:22;;;;;;;3.78;1.02;;;;;;;14.81;100.00;101410.84;6339205;22;20021;-48
2021/10/11 10:07:29;;;;;;;2.15;0.30;;;;;;;15.00;100.00;101407.56;6339471;22;20330;-48
2021/10/11 10:10:33;;;;;;;2.63;0.47;;;;;;;15.07;100.00;101404.44;6339216;22;20029;-48
2021/10/11 10:13:47;;;;;;;6.10;0.80;;;;;;;14.97;100.00;101405.69;6339560;22;20056;-48
2021/10/11 10:16:52;;;;;;;6.95;0.73;;;;;;;14.89;100.00;101407.25;6338955;22;20478;-48
2021/10/11 10:20:04;;;;;;;2.70;0.47;;;;;;;14.86;100.00;101413.00;6339573;22;20026;-48
2021/10/11 10:23:07;;;;;;;1.60;0.80;;;;;;;14.81;100.00;101403.19;6320105;22;20064;-49
2021/10/11 10:26:13;;;;;;;2.75;0.55;;;;;;;14.84;100.00;101393.84;6339431;22;20025;-49
2021/10/11 10:29:20;;;;;;;5.10;1.77;;;;;;;14.95;100.00;101401.78;6338946;22;20063;-49
2021/10/11 10:32:23;;;;;;;1.13;0.55;;;;;;;15.05;100.00;101392.91;6338900;22;20025;-49
2021/10/11 10:35:30;;;;;;;3.55;0.70;;;;;;;15.11;100.00;101385.44;6338572;22;20022;-49
2021/10/11 10:38:33;;;;;;;7.82;0.47;;;;;;;15.12;100.00;101386.97;6338599;22;20057;-49
2021/10/11 10:41:38;;;;;;;0.85;0.30;;;;;;;15.15;100.00;101386.03;6338974;22;20108;-48
2021/10/11 10:44:46;;;;;;;1.65;0.50;;;;;;;15.30;100.00;101374.16;6339252;22;20071;-49
2021/10/11 10:47:50;;;;;;;1.30;0.35;;;;;;;15.35;100.00;101377.13;6338983;22;20076;-49
2021/10/11 10:50:58;;;;;;;6.93;0.57;;;;;;;15.42;100.00;101376.00;6320740;22;20026;-49
2021/10/11 10:54:01;;;;;;;0.10;0.10;;;;;;;15.54;100.00;101389.09;6338909;22;20083;-49
2021/10/11 10:57:06;;;;;;;1.27;0.47;;;;;;;15.61;100.00;101394.38;6339361;22;20064;-49
2021/10/11 11:00:18;;;;;;;0.90;0.80;;;;;;;15.81;100.00;101383.38;6338968;22;20374;-49
2021/10/11 11:03:21;;;;;;;0.65;0.35;;;;;;;15.98;100.00;101390.19;6338531;22;20029;-49
2021/10/11 11:06:29;;;;;;;2.50;0.55;;;;;;;15.95;100.00;101385.50;6339172;22;20040;-49
2021/10/11 11:09:38;;;;;;;3.60;0.32;;;;;;;15.96;100.00;101392.66;6339003;22;20022;-49
2021/10/11 11:13:03;;;;;;;1.05;0.47;;;;;;;16.01;100.00;101392.03;6339147;22;20076;-49
2021/10/11 11:16:06;;;;;;;1.95;0.15;;;;;;;15.87;100.00;101384.31;6338853;22;20048;-48
2021/10/11 11:19:12;;;;;;;2.40;0.85;;;;;;;15.86;100.00;101382.72;6339455;22;20022;-49
2021/10/11 11:22:27;;;;;;;6.95;0.40;;;;;;;15.93;100.00;101376.78;6338940;22;20064;-49
2021/10/11 11:25:35;;;;;;;6.18;0.75;;;;;;;15.98;100.00;101383.78;6338729;22;20064;-49
2021/10/11 11:28:38;;;;;;;7.85;0.73;;;;;;;16.03;100.00;101375.47;6338254;22;20030;-49
2021/10/11 11:31:52;;;;;;;1.70;0.15;;;;;;;16.11;100.00;101379.50;6338415;22;20877;-49
2021/10/11 11:34:56;;;;;;;0.50;0.50;;;;;;;16.29;100.00;101382.19;6338368;22;20037;-46
2021/10/11 11:38:02;;;;;;;8.40;0.93;;;;;;;16.30;100.00;101380.16;6339034;22;20030;-47
2021/10/11 11:41:05;;;;;;;6.55;0.63;;;;;;;16.20;100.00;101373.06;6338539;22;20025;-46
2021/10/11 11:44:08;;;;;;;4.97;1.17;;;;;;;16.08;100.00;101369.19;6338898;22;20443;-46
2021/10/11 11:47:11;;;;;;;13.43;1.27;;;;;;;16.05;100.00;101366.59;6338323;22;20071;-47
2021/10/11 11:50:23;;;;;;;2.42;0.88;;;;;;;16.20;100.00;101364.63;6338677;22;20025;-47
2021/10/11 11:53:26;;;;;;;;;;;;;;;16.34;100.00;101366.69;6338321;22;20029;-47
2021/10/11 11:56:29;;;;;;;7.60;0.25;;;;;;;16.41;100.00;101377.59;6338905;22;19929;-47
2021/10/11 11:59:37;;;;;;;3.95;1.17;;;;;;;16.54;100.00;101369.72;6338439;22;20029;-46
2021/10/11 12:02:44;;;;;;;6.93;1.45;;;;;;;16.80;100.00;101358.72;6338752;22;20022;-48
2021/10/11 12:05:49;;;;;;;4.78;1.17;;;;;;;16.81;100.00;101349.00;6319891;22;20023;-47
2021/10/11 12:08:58;;;;;;;1.38;0.30;;;;;;;16.76;100.00;101350.47;6338614;22;20098;-47
2021/10/11 12:12:06;;;;;;;3.97;0.52;;;;;;;16.84;100.00;101348.06;6338778;22;20511;-47
2021/10/11 12:15:20;;;;;;;2.60;0.82;;;;;;;17.01;100.00;101346.31;6338376;22;20022;-47
2021/10/11 12:18:32;;;;;;;1.33;0.50;;;;;;;17.19;100.00;101337.72;6338753;22;20026;-47
2021/10/11 12:21:38;;;;;;;0.40;0.30;;;;;;;17.38;100.00;101336.25;6338447;22;20025;-47
2021/10/11 12:24:41;;;;;;;8.07;0.50;;;;;;;17.41;100.00;101324.00;6338468;22;20445;-47
2021/10/11 12:27:44;;;;;;;1.67;0.68;;;;;;;17.39;100.00;101327.28;6338579;22;20441;-47
2021/10/11 12:30:48;;;;;;;3.55;0.57;;;;;;;17.23;100.00;101335.47;6338861;22;20076;-47
2021/10/11 12:33:53;;;;;;;1.10;0.30;;;;;;;17.05;100.00;101338.47;6338367;22;20096;-47
2021/10/11 12:36:57;;;;;;;0.43;0.38;;;;;;;16.94;100.00;101341.06;6338595;22;20143;-47
2021/10/11 12:40:00;;;;;;;0.25;0.05;;;;;;;16.85;100.00;101332.75;6319037;22;20054;-47
2021/10/11 12:43:18;;;;;;;1.00;0.47;;;;;;;16.95;100.00;101342.63;6338580;22;20094;-47
2021/10/11 12:46:23;;;;;;;7.88;0.55;;;;;;;16.98;100.00;101339.63;6338186;22;20486;-46
2021/10/11 12:49:31;;;;;;;0.85;0.30;;;;;;;17.05;100.00;101335.66;6319226;22;20026;-47
2021/10/11 12:52:41;;;;;;;1.77;0.20;;;;;;;17.21;100.00;101329.56;6338105;22;20033;-47
2021/10/11 12:55:44;;;;;;;2.63;0.30;;;;;;;17.19;100.00;101329.25;6338410;22;20022;-47
2021/10/11 12:58:56;;;;;;;4.07;1.20;;;;;;;17.01;100.00;101337.88;6338085;22;20067;-47
2021/10/11 13:02:01;;;;;;;5.80;0.55;;;;;;;16.80;100.00;101336.22;6339197;22;20102;-47
2021/10/11 13:05:07;;;;;;;0.15;0.10;;;;;;;16.57;100.00;101330.16;6303358;22;20022;-47
2021/10/11 13:08:11;;;;;;;0.52;0.30;;;;;;;16.31;100.00;101331.09;6340256;22;20083;-47
2021/10/11 13:11:18;;;;;;;0.95;0.63;;;;;;;16.13;100.00;101329.22;6321098;22;20022;-47
2021/10/11 13:14:20;;;;;;;1.77;0.60;;;;;;;15.99;100.00;101329.91;6339970;22;20022;-47
2021/10/11 13:17:24;;;;;;;1.33;0.20;;;;;;;15.81;100.00;101336.41;6303343;22;20021;-47
2021/10/11 13:20:29;;;;;;;0.28;0.22;;;;;;;15.94;100.00;101327.75;6339988;22;20030;-47
2021/10/11 13:23:33;;;;;;;4.22;0.90;;;;;;;15.95;100.00;101320.88;6340202;22;20072;-47
2021/10/11 13:26:36;;;;;;;2.78;0.85;;;;;;;16.04;100.00;101331.28;6340458;22;20080;-47
2021/10/11 13:30:18;;;;;;;8.70;1.83;;;;;;;16.18;100.00;101325.72;6340365;22;20473;-48
2021/10/11 14:27:45;;;;;;;0.50;0.25;;;;;;;16.50;100.00;101285.50;6339508;22;20049;-48
2021/10/11 14:34:18;;;;;;;6.03;0.47;;;;;;;16.54;100.00;101291.75;6339440;22;20140;-50
2021/10/11 15:57:25;;;;;;;5.25;1.83;;;;;;;15.23;100.00;101251.00;6338636;22;20026;-46
2021/10/11 16:00:17;;;;;;;4.82;0.88;;;;;;;15.05;100.00;101244.19;6338477;22;20134;-46
2021/10/11 16:06:55;;;;;;;2.15;0.73;;;;;;;14.83;100.00;101229.63;6337875;22;20069;-45
2021/10/11 16:09:58;;;;;;;0.45;0.17;;;;;;;14.79;100.00;101229.00;6338462;22;20084;-45
2021/10/11 16:13:01;;;;;;;5.38;0.73;;;;;;;14.78;100.00;101233.06;6338556;22;20037;-46
2021/10/11 16:16:05;;;;;;;0.55;0.40;;;;;;;14.63;100.00;101243.38;6337867;22;20022;-45
2021/10/11 16:19:08;;;;;;;5.35;0.50;;;;;;;14.57;100.00;101234.03;6338362;22;20073;-46
2021/10/11 16:22:18;;;;;;;0.90;0.47;;;;;;;14.52;100.00;101239.50;6338402;22;20075;-46
2021/10/11 16:25:22;;;;;;;5.32;0.40;;;;;;;14.39;100.00;101245.28;6337900;22;20063;-47
2021/10/11 16:28:36;;;;;;;2.30;0.47;;;;;;;14.41;100.00;101237.16;6338441;22;20147;-47
2021/10/11 16:31:58;;;;;;;6.22;0.68;;;;;;;14.29;100.00;101226.91;6338004;22;20566;-46
2021/10/11 16:35:01;;;;;;;14.40;0.35;;;;;;;14.15;100.00;101225.47;6337891;22;20041;-46